Time;durP1;ratioP1;P1;durP2;ratioP2;P2;SDS_P1;SDS_P2;PMS_P1;PMS_P2;Temp;Humidity;BMP_temperature;BMP_pressure;BME280_temperature;BME280_humidity;BME280_pressure;Samples;Min_cycle;Max_cycle;Signal;HPM_P1;HPM_P2
2023/05/10 00:01:29;;;;;;;1.73;1.10;;;18.50;89.10;;;;;;5053286;28;20553;-74
2023/05/10 00:03:56;;;;;;;1.03;1.03;;;18.40;89.10;;;;;;5053056;28;20463;-74
2023/05/10 00:06:23;;;;;;;2.97;1.10;;;18.40;89.50;;;;;;5053130;28;20527;-74
2023/05/10 00:08:49;;;;;;;1.93;1.20;;;18.50;89.30;;;;;;5052638;28;20459;-74
2023/05/10 00:11:16;;;;;;;0.90;0.90;;;18.50;89.10;;;;;;5052888;28;20507;-75
2023/05/10 00:13:43;;;;;;;1.20;1.10;;;18.40;88.80;;;;;;5052136;28;20467;-75
2023/05/10 00:16:12;;;;;;;1.67;1.17;;;18.40;89.00;;;;;;5034344;28;20456;-74
2023/05/10 00:18:40;;;;;;;1.23;0.83;;;18.40;89.30;;;;;;5052519;28;20452;-74
2023/05/10 00:21:07;;;;;;;1.27;0.80;;;18.40;89.10;;;;;;5051476;28;20452;-74
2023/05/10 00:23:34;;;;;;;1.10;1.10;;;18.40;89.50;;;;;;5052705;28;21002;-74
2023/05/10 00:26:01;;;;;;;1.90;1.50;;;18.30;89.00;;;;;;5051837;28;21018;-74
2023/05/10 00:28:29;;;;;;;1.40;1.20;;;18.30;89.40;;;;;;5052201;28;20547;-75
2023/05/10 00:30:56;;;;;;;1.33;1.00;;;18.40;89.40;;;;;;5001097;28;20903;-75
2023/05/10 00:33:24;;;;;;;1.00;0.90;;;18.40;89.10;;;;;;5052719;28;20455;-74
2023/05/10 00:35:51;;;;;;;2.37;1.93;;;18.30;88.90;;;;;;5052232;28;20827;-74
2023/05/10 00:38:18;;;;;;;1.00;0.80;;;18.30;89.00;;;;;;5052152;28;20570;-74
2023/05/10 00:40:45;;;;;;;1.07;0.97;;;18.20;89.20;;;;;;5052541;28;20983;-74
2023/05/10 00:43:12;;;;;;;2.00;1.20;;;18.20;89.40;;;;;;5051568;28;20969;-75
2023/05/10 00:45:40;;;;;;;1.27;1.10;;;18.20;89.50;;;;;;5051718;28;20539;-75
2023/05/10 00:48:08;;;;;;;1.63;0.90;;;18.20;89.60;;;;;;5050884;28;20480;-74
2023/05/10 00:50:36;;;;;;;2.00;1.10;;;18.10;89.70;;;;;;5050791;28;20978;-75
2023/05/10 00:53:04;;;;;;;0.70;0.70;;;18.10;89.80;;;;;;5050862;28;20452;-75
2023/05/10 00:55:31;;;;;;;0.80;0.80;;;18.10;90.00;;;;;;5032740;28;20456;-75
2023/05/10 00:57:58;;;;;;;0.97;0.97;;;18.10;90.00;;;;;;5054870;28;20550;-75
2023/05/10 01:00:25;;;;;;;2.27;1.10;;;18.10;89.90;;;;;;5033229;28;20472;-75
2023/05/10 01:02:54;;;;;;;1.30;1.20;;;18.10;89.80;;;;;;5052557;28;20452;-75
2023/05/10 01:05:21;;;;;;;2.47;1.37;;;18.10;90.00;;;;;;5052314;28;20452;-73
2023/05/10 01:07:49;;;;;;;2.13;1.50;;;18.00;90.00;;;;;;5050344;28;20885;-73
2023/05/10 01:13:42;;;;;;;2.27;1.60;;;18.00;90.10;;;;;;5050628;28;20443;-75
2023/05/10 01:16:09;;;;;;;1.80;1.70;;;18.00;90.00;;;;;;5051560;28;20543;-75
2023/05/10 01:18:40;;;;;;;1.60;1.50;;;17.90;90.00;;;;;;5050804;28;20498;-75
2023/05/10 01:21:18;;;;;;;1.33;1.17;;;17.90;90.10;;;;;;5051457;28;20460;-75
2023/05/10 01:24:47;;;;;;;1.43;1.27;;;17.80;90.20;;;;;;5051885;28;20459;-75
2023/05/10 01:27:52;;;;;;;3.83;1.20;;;17.90;90.30;;;;;;4970211;28;20835;-75
2023/05/10 01:30:47;;;;;;;1.30;1.20;;;17.90;90.40;;;;;;5038261;28;20463;-75
2023/05/10 01:33:20;;;;;;;1.40;1.30;;;17.90;90.40;;;;;;5052642;28;20448;-74
2023/05/10 01:35:56;;;;;;;1.40;1.27;;;17.70;90.30;;;;;;5040134;28;20449;-74
2023/05/10 01:38:30;;;;;;;1.13;1.10;;;17.80;90.50;;;;;;5054719;28;20971;-75
2023/05/10 01:41:09;;;;;;;1.13;1.13;;;17.80;90.30;;;;;;5054660;28;20514;-76
2023/05/10 01:43:44;;;;;;;1.20;1.20;;;17.80;90.30;;;;;;5054924;28;20475;-74
2023/05/10 01:46:17;;;;;;;1.60;1.50;;;17.80;90.30;;;;;;5054872;28;20456;-75
2023/05/10 01:48:49;;;;;;;3.70;1.60;;;17.80;90.30;;;;;;4951527;28;20464;-74
2023/05/10 01:51:27;;;;;;;2.13;1.93;;;17.80;90.30;;;;;;5052614;28;20800;-75
2023/05/10 01:53:59;;;;;;;1.70;1.60;;;17.90;90.40;;;;;;5036818;28;20943;-75
2023/05/10 01:56:28;;;;;;;2.10;1.43;;;17.90;90.30;;;;;;5054797;28;20498;-75
2023/05/10 01:58:57;;;;;;;2.40;1.70;;;17.80;90.30;;;;;;5053228;28;20471;-75
2023/05/10 02:01:27;;;;;;;1.87;1.77;;;17.80;90.30;;;;;;5036861;28;20769;-75
2023/05/10 02:03:56;;;;;;;1.73;1.63;;;17.80;90.50;;;;;;5054411;28;20476;-75
2023/05/10 02:06:24;;;;;;;1.90;1.70;;;17.70;90.60;;;;;;5054390;28;20458;-75
2023/05/10 02:08:53;;;;;;;1.47;1.37;;;17.70;90.60;;;;;;5053428;28;20457;-74
2023/05/10 02:11:22;;;;;;;1.90;1.70;;;17.70;90.60;;;;;;5054449;28;20521;-75
2023/05/10 02:13:52;;;;;;;2.20;2.00;;;17.70;90.60;;;;;;5054171;28;20484;-75
2023/05/10 02:16:23;;;;;;;3.23;2.30;;;17.70;90.70;;;;;;5054348;28;20497;-75
2023/05/10 02:18:53;;;;;;;2.03;1.93;;;17.80;90.70;;;;;;5053681;28;20479;-75
2023/05/10 02:21:22;;;;;;;2.63;2.00;;;17.70;90.70;;;;;;5047823;28;20563;-74
2023/05/10 02:23:52;;;;;;;2.53;2.00;;;17.70;90.70;;;;;;5053699;28;20478;-75
2023/05/10 02:26:21;;;;;;;3.37;2.40;;;17.70;90.70;;;;;;5054027;28;20468;-75
2023/05/10 02:28:49;;;;;;;2.40;2.20;;;17.60;90.80;;;;;;5053679;28;20458;-74
2023/05/10 02:31:17;;;;;;;2.50;2.30;;;17.60;91.00;;;;;;5053523;28;20459;-76
2023/05/10 02:33:46;;;;;;;3.73;3.40;;;17.60;91.20;;;;;;5053404;28;20452;-74
2023/05/10 02:36:14;;;;;;;3.80;3.30;;;17.40;91.30;;;;;;5053569;28;20458;-74
2023/05/10 02:38:44;;;;;;;3.27;2.87;;;17.40;91.40;;;;;;5037245;28;20571;-76
2023/05/10 02:41:12;;;;;;;3.00;2.80;;;17.40;91.80;;;;;;5053076;28;20455;-75
2023/05/10 02:43:41;;;;;;;3.40;3.10;;;17.50;91.40;;;;;;5053780;28;20486;-75
2023/05/10 02:46:09;;;;;;;3.47;3.17;;;17.50;91.30;;;;;;5052998;28;20463;-75
2023/05/10 02:48:35;;;;;;;4.87;3.20;;;17.50;91.40;;;;;;5053512;28;20551;-75
2023/05/10 02:51:07;;;;;;;5.13;3.60;;;17.50;91.20;;;;;;5053123;28;20470;-75
2023/05/10 02:53:37;;;;;;;4.03;3.73;;;17.60;91.40;;;;;;5053867;28;20452;-74
2023/05/10 02:56:15;;;;;;;4.57;4.17;;;17.60;91.20;;;;;;5053208;28;20459;-75
2023/05/10 02:58:42;;;;;;;3.43;3.13;;;17.60;91.20;;;;;;5053451;28;20535;-74
2023/05/10 03:01:09;;;;;;;4.90;3.67;;;17.60;91.20;;;;;;5053950;28;20522;-74
2023/05/10 03:03:36;;;;;;;3.40;3.20;;;17.60;91.00;;;;;;5054119;28;20480;-74
2023/05/10 03:06:03;;;;;;;4.73;3.70;;;17.60;91.00;;;;;;5054222;28;20540;-75
2023/05/10 03:08:30;;;;;;;5.20;4.03;;;17.60;90.90;;;;;;5054056;28;20444;-75
2023/05/10 03:11:11;;;;;;;3.80;3.40;;;17.60;91.00;;;;;;5053680;28;20457;-75
2023/05/10 03:13:49;;;;;;;3.63;3.33;;;17.60;91.00;;;;;;5053866;28;20456;-75
2023/05/10 03:16:22;;;;;;;5.30;3.40;;;17.50;91.20;;;;;;5053570;28;20567;-75
2023/05/10 03:18:55;;;;;;;4.90;3.53;;;17.50;91.20;;;;;;5053692;28;20847;-75
2023/05/10 03:21:26;;;;;;;3.60;3.30;;;17.50;91.10;;;;;;5053138;28;20973;-76
2023/05/10 03:24:03;;;;;;;3.87;3.50;;;17.50;90.90;;;;;;5036182;28;20800;-75
2023/05/10 03:26:32;;;;;;;3.50;3.20;;;17.50;91.10;;;;;;5001684;28;20456;-75
2023/05/10 03:29:00;;;;;;;8.53;7.30;;;17.50;91.10;;;;;;5053500;28;20469;-75
2023/05/10 03:31:27;;;;;;;4.13;3.73;;;17.50;91.00;;;;;;5052913;28;20459;-75
2023/05/10 03:33:54;;;;;;;3.57;3.27;;;17.50;91.00;;;;;;5052325;28;20514;-74
2023/05/10 03:36:21;;;;;;;5.97;3.07;;;17.50;91.00;;;;;;5052778;28;20448;-76
2023/05/10 03:38:48;;;;;;;3.77;3.47;;;17.50;90.90;;;;;;5052703;28;20483;-75
2023/05/10 03:41:14;;;;;;;3.67;3.37;;;17.50;90.80;;;;;;5052268;28;20480;-75
2023/05/10 03:43:43;;;;;;;3.37;3.07;;;17.60;90.80;;;;;;5052296;28;20475;-74
2023/05/10 03:46:10;;;;;;;3.50;3.20;;;17.60;90.80;;;;;;5016204;28;20448;-75
2023/05/10 03:48:37;;;;;;;3.40;3.10;;;17.60;90.70;;;;;;5052141;28;20456;-75
2023/05/10 03:51:04;;;;;;;3.77;3.20;;;17.60;90.70;;;;;;5016616;28;20819;-74
2023/05/10 03:53:30;;;;;;;2.90;2.60;;;17.70;90.60;;;;;;5052633;28;20484;-75
2023/05/10 03:55:57;;;;;;;3.90;3.10;;;17.70;90.50;;;;;;5032635;28;20930;-75
2023/05/10 03:58:24;;;;;;;3.70;3.40;;;17.80;90.40;;;;;;5049822;28;20488;-75
2023/05/10 04:00:53;;;;;;;3.60;3.30;;;17.80;90.30;;;;;;5052456;28;20507;-75
2023/05/10 04:03:20;;;;;;;3.87;3.10;;;17.80;90.30;;;;;;5040222;28;20453;-75
2023/05/10 04:05:47;;;;;;;3.17;2.77;;;17.90;90.30;;;;;;5052331;28;20939;-74
2023/05/10 04:08:14;;;;;;;3.63;3.13;;;17.80;90.20;;;;;;5052160;28;20871;-75
2023/05/10 04:10:41;;;;;;;5.53;2.93;;;17.80;90.20;;;;;;5051991;28;20543;-74
2023/05/10 04:13:08;;;;;;;3.10;2.90;;;17.90;90.20;;;;;;5051466;28;20475;-75
2023/05/10 04:15:35;;;;;;;3.97;2.70;;;17.80;90.20;;;;;;5052194;28;20448;-75
2023/05/10 04:18:03;;;;;;;2.97;2.77;;;17.80;90.30;;;;;;5052512;28;20492;-75
2023/05/10 04:20:30;;;;;;;3.13;2.93;;;17.80;90.30;;;;;;5053308;28;20468;-75
2023/05/10 04:22:57;;;;;;;4.27;2.67;;;17.80;90.30;;;;;;5053208;28;21034;-75
2023/05/10 04:25:24;;;;;;;3.90;3.00;;;17.80;90.70;;;;;;5052789;28;20479;-75
2023/05/10 04:27:50;;;;;;;3.70;2.37;;;17.90;90.70;;;;;;5052734;28;20456;-75
2023/05/10 04:30:17;;;;;;;3.00;2.70;;;17.90;90.20;;;;;;5052894;28;20583;-75
2023/05/10 04:32:44;;;;;;;2.50;2.30;;;17.90;90.00;;;;;;5052941;28;20553;-74
2023/05/10 04:35:14;;;;;;;2.73;2.53;;;17.80;90.10;;;;;;5052969;28;20536;-75
2023/05/10 04:37:41;;;;;;;4.23;2.80;;;17.90;90.30;;;;;;5037764;28;20481;-75
2023/05/10 04:40:09;;;;;;;2.80;2.60;;;17.90;90.20;;;;;;5033081;28;20441;-74
2023/05/10 04:42:36;;;;;;;4.17;2.60;;;18.00;90.10;;;;;;5032893;28;20457;-74
2023/05/10 04:45:03;;;;;;;2.63;2.43;;;18.00;90.00;;;;;;5047902;28;20466;-75
2023/05/10 04:47:30;;;;;;;2.87;2.57;;;18.00;90.00;;;;;;5052212;28;20883;-75
2023/05/10 04:49:57;;;;;;;3.10;2.60;;;18.00;90.00;;;;;;5052219;28;21171;-75
2023/05/10 04:52:26;;;;;;;3.47;2.60;;;18.00;90.00;;;;;;5052508;28;20453;-74
2023/05/10 04:54:52;;;;;;;2.67;2.47;;;18.00;89.90;;;;;;5052642;28;20936;-76
2023/05/10 04:57:19;;;;;;;2.60;2.23;;;18.10;89.80;;;;;;5035054;28;20457;-77
2023/05/10 04:59:46;;;;;;;3.00;2.53;;;18.10;89.70;;;;;;5053142;28;20321;-76
2023/05/10 05:02:13;;;;;;;3.70;2.40;;;18.20;89.50;;;;;;5052923;28;20463;-76
2023/05/10 05:04:40;;;;;;;4.23;2.60;;;18.20;90.10;;;;;;5052919;28;20575;-76
2023/05/10 05:07:07;;;;;;;2.80;2.60;;;18.20;89.40;;;;;;5052640;28;20452;-76
2023/05/10 05:09:35;;;;;;;2.90;2.37;;;18.20;89.40;;;;;;5052281;28;20470;-75
2023/05/10 05:12:02;;;;;;;2.80;2.60;;;18.20;89.50;;;;;;5052402;28;20535;-75
2023/05/10 05:14:29;;;;;;;4.60;2.73;;;18.20;89.80;;;;;;5035335;28;20456;-75
2023/05/10 05:16:56;;;;;;;3.10;2.60;;;18.20;89.80;;;;;;5052993;28;20480;-77
2023/05/10 05:19:23;;;;;;;2.70;2.50;;;18.20;89.50;;;;;;5052937;28;20491;-77
2023/05/10 05:21:50;;;;;;;3.17;2.70;;;18.20;89.80;;;;;;5052328;28;20530;-76
2023/05/10 05:24:17;;;;;;;4.07;2.73;;;18.20;89.70;;;;;;5051561;28;20507;-74
2023/05/10 05:26:45;;;;;;;3.30;3.00;;;18.30;90.00;;;;;;5051723;28;20455;-74
2023/05/10 05:29:12;;;;;;;4.43;4.07;;;18.30;89.80;;;;;;5050880;28;20455;-74
2023/05/10 05:31:38;;;;;;;3.63;3.33;;;18.30;89.50;;;;;;5047522;28;20471;-75
2023/05/10 05:34:05;;;;;;;4.53;3.57;;;18.20;90.00;;;;;;5042837;28;20482;-74
2023/05/10 05:36:33;;;;;;;3.10;2.70;;;18.20;90.40;;;;;;5050898;28;20463;-74
2023/05/10 05:39:00;;;;;;;4.70;3.40;;;18.20;90.10;;;;;;5050634;28;21063;-75
2023/05/10 05:41:27;;;;;;;2.90;2.70;;;18.20;90.10;;;;;;5050666;28;20532;-75
2023/05/10 05:43:55;;;;;;;3.97;2.87;;;18.20;90.00;;;;;;5051965;28;20551;-75
2023/05/10 05:46:22;;;;;;;3.10;2.80;;;18.20;90.00;;;;;;5051521;28;20468;-75
2023/05/10 05:48:48;;;;;;;3.00;2.70;;;18.10;90.00;;;;;;5050975;28;20563;-73
2023/05/10 05:51:15;;;;;;;4.10;2.80;;;18.10;90.00;;;;;;5053755;28;20559;-74
2023/05/10 05:53:42;;;;;;;4.27;2.70;;;18.20;90.10;;;;;;5054334;28;20454;-75
2023/05/10 05:56:09;;;;;;;5.17;2.90;;;18.20;89.90;;;;;;5053779;28;20469;-74
2023/05/10 05:58:36;;;;;;;2.70;2.50;;;18.20;89.80;;;;;;5053229;28;20503;-74
2023/05/10 06:01:04;;;;;;;3.00;2.70;;;18.20;89.60;;;;;;5052118;28;20444;-73
2023/05/10 06:03:32;;;;;;;2.83;2.53;;;18.20;89.80;;;;;;5051560;28;20547;-73
2023/05/10 06:05:59;;;;;;;2.90;2.60;;;18.20;89.80;;;;;;5050879;28;20459;-73
2023/05/10 06:08:26;;;;;;;4.20;2.67;;;18.10;89.50;;;;;;5051687;28;20483;-73
2023/05/10 06:10:52;;;;;;;2.57;2.37;;;18.10;89.60;;;;;;5052023;28;20522;-74
2023/05/10 06:13:19;;;;;;;3.93;2.47;;;18.10;89.50;;;;;;5051491;28;20513;-74
2023/05/10 06:15:46;;;;;;;2.40;2.20;;;18.10;89.70;;;;;;5051395;28;20555;-73
2023/05/10 06:18:14;;;;;;;3.03;2.17;;;18.10;89.00;;;;;;5050317;28;20480;-74
2023/05/10 06:20:43;;;;;;;3.70;2.40;;;18.10;89.00;;;;;;5054657;28;20451;-74
2023/05/10 06:23:10;;;;;;;2.70;2.50;;;18.10;88.40;;;;;;5055001;28;20460;-74
2023/05/10 06:25:36;;;;;;;2.40;2.00;;;18.10;88.80;;;;;;5055469;28;20454;-74
2023/05/10 06:28:03;;;;;;;2.43;1.97;;;18.10;88.60;;;;;;5054384;28;20929;-74
2023/05/10 06:30:30;;;;;;;2.83;1.90;;;18.20;88.20;;;;;;5055362;28;20807;-73
2023/05/10 06:32:57;;;;;;;1.67;1.57;;;18.10;87.10;;;;;;5055008;28;20462;-74
2023/05/10 06:35:25;;;;;;;1.73;1.63;;;18.10;87.60;;;;;;5054220;28;20790;-72
2023/05/10 06:37:52;;;;;;;2.63;1.93;;;18.00;87.50;;;;;;5055782;28;20448;-73
2023/05/10 06:40:20;;;;;;;3.47;1.87;;;18.00;88.00;;;;;;5053247;28;20472;-73
2023/05/10 06:42:47;;;;;;;2.07;1.73;;;18.10;87.60;;;;;;5053490;28;20448;-73
2023/05/10 06:45:14;;;;;;;1.77;1.67;;;18.10;86.70;;;;;;5054865;28;20456;-73
2023/05/10 06:47:42;;;;;;;2.33;1.77;;;18.00;86.10;;;;;;5053566;28;20463;-73
2023/05/10 06:50:11;;;;;;;2.90;1.80;;;18.00;86.90;;;;;;5054633;28;20455;-73
2023/05/10 06:52:39;;;;;;;2.83;1.80;;;18.00;87.20;;;;;;5054334;28;20476;-72
2023/05/10 06:55:08;;;;;;;3.13;2.70;;;18.10;87.50;;;;;;5054116;28;20440;-73
2023/05/10 06:57:35;;;;;;;1.70;1.57;;;18.10;86.50;;;;;;5053095;28;20476;-73
2023/05/10 07:00:03;;;;;;;3.50;2.43;;;18.10;86.50;;;;;;5052537;28;20506;-73
2023/05/10 07:02:30;;;;;;;1.57;1.47;;;18.20;86.40;;;;;;5053759;28;20449;-73
2023/05/10 07:04:57;;;;;;;2.17;1.97;;;18.20;86.20;;;;;;5054031;28;20468;-73
2023/05/10 07:07:24;;;;;;;1.90;1.73;;;18.20;86.30;;;;;;5053664;28;20449;-72
2023/05/10 07:09:52;;;;;;;2.57;1.73;;;18.20;86.40;;;;;;5053850;28;20451;-73
2023/05/10 07:12:19;;;;;;;3.60;3.07;;;18.30;86.30;;;;;;5053471;28;20544;-74
2023/05/10 07:14:46;;;;;;;1.70;1.60;;;18.40;86.30;;;;;;5053139;28;20212;-73
2023/05/10 07:17:13;;;;;;;1.70;1.43;;;18.50;86.40;;;;;;5053323;28;20851;-73
2023/05/10 07:19:40;;;;;;;2.00;1.33;;;18.50;85.50;;;;;;5053293;28;20225;-72
2023/05/10 07:22:07;;;;;;;1.60;1.50;;;18.50;85.10;;;;;;5053135;28;20548;-74
2023/05/10 07:24:34;;;;;;;1.73;1.50;;;18.40;85.10;;;;;;5032808;28;20535;-73
2023/05/10 07:27:04;;;;;;;2.03;1.47;;;18.40;85.30;;;;;;5053434;28;20237;-73
2023/05/10 07:29:31;;;;;;;1.57;1.40;;;18.50;85.70;;;;;;5044078;28;20990;-74
2023/05/10 07:31:57;;;;;;;1.33;1.23;;;18.60;85.60;;;;;;5050810;28;20819;-73
2023/05/10 07:34:24;;;;;;;2.03;1.60;;;18.60;84.80;;;;;;5050155;28;20520;-73
2023/05/10 07:36:51;;;;;;;2.13;1.67;;;18.50;85.30;;;;;;5043677;28;20225;-73
2023/05/10 07:39:20;;;;;;;1.53;1.43;;;18.50;84.60;;;;;;5053463;28;21051;-72
2023/05/10 07:41:47;;;;;;;1.87;1.27;;;18.50;84.40;;;;;;5051354;28;20499;-73
2023/05/10 07:44:18;;;;;;;1.93;1.20;;;18.50;84.10;;;;;;5054136;28;20519;-74
2023/05/10 07:46:44;;;;;;;1.23;1.13;;;18.50;84.10;;;;;;5031894;28;20456;-74
2023/05/10 07:49:12;;;;;;;1.77;1.30;;;18.50;84.20;;;;;;5038618;28;20198;-74
2023/05/10 07:51:38;;;;;;;1.47;1.37;;;18.50;84.10;;;;;;5045498;28;20828;-73
2023/05/10 07:54:05;;;;;;;2.17;1.40;;;18.60;84.10;;;;;;5049324;28;20236;-73
2023/05/10 07:56:34;;;;;;;1.17;1.10;;;18.60;83.60;;;;;;5048526;28;20212;-72
2023/05/10 07:59:01;;;;;;;2.07;1.53;;;18.70;83.80;;;;;;5049477;28;20499;-73
2023/05/10 08:01:33;;;;;;;1.30;1.20;;;18.60;83.10;;;;;;5052181;28;20456;-73
2023/05/10 08:04:00;;;;;;;2.17;1.97;;;18.60;83.50;;;;;;5053630;28;20292;-74
2023/05/10 08:06:28;;;;;;;1.83;1.40;;;18.70;83.40;;;;;;5053264;28;20477;-74
2023/05/10 08:08:55;;;;;;;1.40;1.30;;;18.70;82.70;;;;;;5052412;28;20476;-73
2023/05/10 08:11:22;;;;;;;1.83;1.27;;;18.70;83.00;;;;;;5052080;28;20453;-73
2023/05/10 08:13:50;;;;;;;1.17;1.00;;;18.60;83.00;;;;;;5052781;28;20527;-74
2023/05/10 08:16:17;;;;;;;1.20;1.10;;;18.60;82.50;;;;;;5052055;28;20831;-73
2023/05/10 08:18:47;;;;;;;0.90;0.90;;;18.60;82.70;;;;;;5051676;28;20476;-73
2023/05/10 08:21:14;;;;;;;2.70;0.97;;;18.60;82.30;;;;;;5052439;28;20499;-73
2023/05/10 08:23:43;;;;;;;1.73;1.10;;;18.70;82.40;;;;;;5052081;28;20492;-74
2023/05/10 08:26:10;;;;;;;2.40;1.33;;;18.80;82.20;;;;;;5052361;28;20205;-73
2023/05/10 08:28:37;;;;;;;8.37;5.53;;;19.10;82.20;;;;;;5051919;28;20901;-73
2023/05/10 08:31:03;;;;;;;1.70;1.50;;;19.10;80.80;;;;;;5052427;28;20885;-73
2023/05/10 08:33:30;;;;;;;2.80;1.17;;;19.30;81.50;;;;;;5052084;28;20467;-73
2023/05/10 08:35:59;;;;;;;1.10;1.10;;;19.40;80.50;;;;;;5052110;28;20233;-73
2023/05/10 08:38:26;;;;;;;1.63;1.20;;;19.40;78.90;;;;;;5060951;28;20600;-73
2023/05/10 08:40:58;;;;;;;1.33;1.23;;;19.40;79.80;;;;;;5060519;28;20228;-72
2023/05/10 08:43:27;;;;;;;1.77;1.17;;;19.40;79.40;;;;;;5051656;28;20288;-73
2023/05/10 08:45:56;;;;;;;2.83;1.83;;;19.30;78.50;;;;;;5050506;28;20197;-73
2023/05/10 08:48:25;;;;;;;1.83;1.40;;;19.10;79.50;;;;;;5051745;28;20694;-73
2023/05/10 08:50:55;;;;;;;3.23;2.17;;;19.00;80.40;;;;;;5052051;28;20205;-73
2023/05/10 08:53:25;;;;;;;6.20;4.23;;;19.00;80.50;;;;;;5052051;28;20213;-73
2023/05/10 08:55:53;;;;;;;2.33;1.17;;;19.00;80.30;;;;;;5051524;28;20206;-73
2023/05/10 08:58:20;;;;;;;1.10;1.00;;;19.00;79.80;;;;;;5051812;28;20768;-74
2023/05/10 09:00:49;;;;;;;1.70;1.17;;;19.10;80.10;;;;;;5051409;28;20233;-74
2023/05/10 09:03:17;;;;;;;1.17;0.93;;;19.10;79.60;;;;;;4953422;28;20251;-73
2023/05/10 09:05:44;;;;;;;1.20;1.10;;;18.90;78.20;;;;;;5051585;28;20246;-74
2023/05/10 09:08:12;;;;;;;1.63;1.27;;;18.90;79.10;;;;;;5051360;28;20955;-74
2023/05/10 09:10:43;;;;;;;2.17;1.33;;;18.90;79.00;;;;;;5051741;28;20449;-74
2023/05/10 09:13:12;;;;;;;2.57;1.07;;;18.80;79.90;;;;;;5051201;28;20570;-73
2023/05/10 09:15:39;;;;;;;2.13;1.40;;;18.90;80.20;;;;;;5051268;28;20201;-74
2023/05/10 09:18:06;;;;;;;8.87;6.23;;;18.90;80.20;;;;;;5051581;28;20828;-73
2023/05/10 09:20:33;;;;;;;3.40;1.87;;;18.90;80.50;;;;;;5051665;28;20476;-73
2023/05/10 09:23:00;;;;;;;1.70;1.20;;;18.90;79.80;;;;;;5051124;28;20458;-74
2023/05/10 09:25:26;;;;;;;2.27;1.27;;;18.90;79.50;;;;;;5051690;28;20855;-74
2023/05/10 09:27:56;;;;;;;1.37;1.27;;;19.00;80.10;;;;;;5050901;28;20829;-73
2023/05/10 09:30:28;;;;;;;2.27;1.10;;;19.10;80.70;;;;;;5051205;28;20198;-73
2023/05/10 09:32:55;;;;;;;1.33;1.23;;;19.10;79.60;;;;;;5051486;28;20502;-73
2023/05/10 09:35:25;;;;;;;1.40;1.30;;;19.10;80.00;;;;;;5051573;28;20206;-73
2023/05/10 09:37:54;;;;;;;1.87;1.07;;;19.10;79.40;;;;;;5053288;28;20221;-72
2023/05/10 09:40:22;;;;;;;1.40;1.00;;;19.10;78.30;;;;;;5051453;28;20620;-72
2023/05/10 09:42:54;;;;;;;4.97;3.17;;;19.00;78.00;;;;;;5051261;28;20815;-74
2023/05/10 09:45:23;;;;;;;1.80;1.50;;;19.00;78.20;;;;;;5051484;28;20459;-73
2023/05/10 09:47:50;;;;;;;3.77;1.20;;;19.10;78.40;;;;;;5050700;28;20691;-73
2023/05/10 09:50:17;;;;;;;1.00;1.00;;;19.20;77.20;;;;;;5050695;28;20829;-73
2023/05/10 09:52:49;;;;;;;6.13;3.30;;;19.00;75.90;;;;;;5050789;28;20208;-72
2023/05/10 09:55:16;;;;;;;5.17;2.83;;;19.10;75.90;;;;;;5054094;28;20324;-73
2023/05/10 09:57:43;;;;;;;1.20;1.10;;;19.10;76.10;;;;;;5054982;28;20225;-73
2023/05/10 10:00:11;;;;;;;0.83;0.83;;;19.20;73.90;;;;;;5037658;28;21146;-73
2023/05/10 10:02:40;;;;;;;1.50;1.10;;;19.30;74.70;;;;;;5037729;28;20475;-73
2023/05/10 10:05:08;;;;;;;3.53;1.00;;;19.40;73.40;;;;;;5054905;28;20304;-73
2023/05/10 10:07:35;;;;;;;1.20;1.10;;;19.50;74.10;;;;;;5054455;28;20483;-73
2023/05/10 10:10:04;;;;;;;1.80;1.20;;;19.60;71.90;;;;;;5055154;28;20205;-74
2023/05/10 10:12:31;;;;;;;1.23;1.00;;;19.60;72.70;;;;;;5055477;28;20216;-73
2023/05/10 10:15:01;;;;;;;1.30;1.00;;;19.70;71.40;;;;;;5054946;28;20694;-73
2023/05/10 10:17:29;;;;;;;1.20;0.97;;;19.80;71.90;;;;;;5054949;28;20206;-74
2023/05/10 10:19:58;;;;;;;0.87;0.80;;;19.80;71.40;;;;;;5054415;28;20247;-74
2023/05/10 10:22:25;;;;;;;1.57;1.20;;;19.80;72.80;;;;;;5054914;28;20194;-73
2023/05/10 10:24:52;;;;;;;1.93;1.20;;;19.90;71.20;;;;;;5054986;28;20586;-73
2023/05/10 10:27:26;;;;;;;1.10;1.00;;;19.90;71.40;;;;;;5054077;28;20464;-73
2023/05/10 10:30:04;;;;;;;4.53;1.53;;;20.00;70.80;;;;;;5054697;28;20202;-73
2023/05/10 10:32:40;;;;;;;1.47;1.20;;;20.10;70.00;;;;;;5054461;28;20695;-74
2023/05/10 10:35:09;;;;;;;1.80;1.10;;;20.20;71.60;;;;;;5054290;28;20477;-73
2023/05/10 10:37:45;;;;;;;1.97;1.10;;;20.30;70.90;;;;;;5054586;28;20224;-73
2023/05/10 10:40:26;;;;;;;1.63;1.20;;;20.50;68.90;;;;;;5054603;28;20302;-73
2023/05/10 10:42:53;;;;;;;2.13;1.50;;;20.60;69.30;;;;;;5054691;28;20206;-73
2023/05/10 10:45:21;;;;;;;2.33;1.37;;;20.70;69.50;;;;;;5053722;28;20222;-73
2023/05/10 10:47:49;;;;;;;2.67;1.47;;;20.80;68.30;;;;;;5054208;28;20658;-73
2023/05/10 10:50:17;;;;;;;1.53;1.20;;;20.80;68.30;;;;;;5054276;28;20202;-73
2023/05/10 10:52:45;;;;;;;2.67;1.40;;;20.90;69.00;;;;;;5054246;28;20201;-72
2023/05/10 10:55:13;;;;;;;2.07;1.43;;;21.00;68.60;;;;;;5053999;28;20198;-73
2023/05/10 10:57:46;;;;;;;2.87;1.90;;;21.10;68.70;;;;;;5036122;28;20229;-73
2023/05/10 11:00:27;;;;;;;2.77;2.00;;;21.10;66.80;;;;;;5054246;28;20222;-73
2023/05/10 11:02:57;;;;;;;2.03;1.70;;;20.90;63.90;;;;;;5053985;28;20197;-73
2023/05/10 11:05:43;;;;;;;2.13;1.90;;;20.70;63.50;;;;;;5052813;28;20209;-73
2023/05/10 11:08:16;;;;;;;1.90;1.50;;;20.80;64.90;;;;;;5053564;28;20575;-73
2023/05/10 11:10:52;;;;;;;2.57;2.17;;;21.10;66.40;;;;;;5054272;28;20253;-73
2023/05/10 11:13:29;;;;;;;2.13;1.87;;;21.00;62.80;;;;;;5054188;28;20691;-73
2023/05/10 11:15:58;;;;;;;3.07;1.77;;;21.00;64.80;;;;;;5053805;28;20272;-73
2023/05/10 11:18:26;;;;;;;2.03;1.83;;;21.00;63.20;;;;;;5052880;28;20201;-72
2023/05/10 11:20:58;;;;;;;1.83;1.63;;;20.90;62.70;;;;;;5053331;28;20312;-74
2023/05/10 11:23:30;;;;;;;2.70;1.73;;;20.80;63.00;;;;;;5053882;28;20213;-73
2023/05/10 11:25:57;;;;;;;1.87;1.60;;;20.90;63.10;;;;;;5053528;28;20296;-75
2023/05/10 11:28:24;;;;;;;3.67;1.97;;;20.80;63.00;;;;;;5053094;28;20228;-73
2023/05/10 11:30:52;;;;;;;2.50;1.90;;;20.90;62.20;;;;;;5053350;28;20201;-74
2023/05/10 11:33:20;;;;;;;2.63;1.70;;;20.90;63.10;;;;;;5053525;28;20210;-74
2023/05/10 11:35:47;;;;;;;1.40;1.30;;;20.90;61.50;;;;;;5052938;28;20201;-75
2023/05/10 11:38:15;;;;;;;4.80;3.57;;;21.00;62.30;;;;;;5035344;28;20206;-73
2023/05/10 11:40:42;;;;;;;2.40;1.70;;;21.10;62.70;;;;;;5053308;28;20230;-73
2023/05/10 11:43:11;;;;;;;2.60;1.40;;;21.20;61.70;;;;;;5053556;28;20584;-73
2023/05/10 11:45:38;;;;;;;2.77;1.43;;;20.90;59.60;;;;;;5052580;28;20225;-73
2023/05/10 11:48:05;;;;;;;2.10;1.30;;;20.70;60.80;;;;;;5052747;28;20201;-73
2023/05/10 11:50:32;;;;;;;3.27;1.50;;;20.50;60.40;;;;;;5052870;28;20761;-73
2023/05/10 11:52:59;;;;;;;2.27;1.50;;;20.40;60.90;;;;;;5052926;28;20244;-73
2023/05/10 11:55:30;;;;;;;3.23;1.37;;;20.40;61.10;;;;;;5049266;28;20285;-72
2023/05/10 11:58:00;;;;;;;1.43;1.07;;;20.40;61.90;;;;;;5032903;28;20293;-74
2023/05/10 12:00:27;;;;;;;2.53;1.57;;;20.50;62.60;;;;;;5032721;28;20698;-73
2023/05/10 12:02:54;;;;;;;2.57;1.60;;;20.60;62.40;;;;;;5051516;28;20201;-74
2023/05/10 12:05:22;;;;;;;2.37;1.23;;;20.70;62.50;;;;;;5033168;28;20225;-73
2023/05/10 12:07:48;;;;;;;3.63;1.60;;;20.80;61.90;;;;;;5043319;28;20285;-74
2023/05/10 12:10:17;;;;;;;1.30;1.20;;;21.00;61.60;;;;;;5052558;28;20530;-73
2023/05/10 12:12:47;;;;;;;1.43;1.17;;;21.10;60.80;;;;;;5052956;28;20725;-72
2023/05/10 12:15:19;;;;;;;0.97;0.80;;;21.00;57.80;;;;;;5053049;28;20669;-74
2023/05/10 12:17:46;;;;;;;0.90;0.83;;;21.10;59.20;;;;;;5051476;28;20316;-73
2023/05/10 12:20:17;;;;;;;0.90;0.87;;;21.30;59.30;;;;;;5052226;28;20773;-72
2023/05/10 12:22:48;;;;;;;3.50;0.90;;;21.40;57.60;;;;;;5052669;28;20233;-73
2023/05/10 12:25:16;;;;;;;1.43;0.87;;;21.30;57.60;;;;;;5051523;28;20210;-72
2023/05/10 12:27:49;;;;;;;2.30;1.60;;;21.20;56.40;;;;;;5052350;28;20524;-72
2023/05/10 12:30:21;;;;;;;1.00;1.00;;;21.20;56.00;;;;;;5052204;28;20252;-73
2023/05/10 12:32:48;;;;;;;1.40;1.20;;;21.20;57.30;;;;;;5052495;28;20540;-74
2023/05/10 12:35:16;;;;;;;9.50;7.70;;;21.30;57.70;;;;;;5052215;28;20241;-72
2023/05/10 12:37:43;;;;;;;1.60;1.50;;;21.50;56.60;;;;;;5052497;28;20257;-73
2023/05/10 12:40:11;;;;;;;2.30;1.50;;;21.30;55.80;;;;;;5052072;28;20692;-73
2023/05/10 12:42:39;;;;;;;5.23;1.47;;;21.30;54.90;;;;;;5034531;28;20213;-72
2023/05/10 12:45:09;;;;;;;2.10;1.10;;;21.40;54.60;;;;;;5052092;28;20236;-73
2023/05/10 12:47:36;;;;;;;3.50;1.30;;;21.30;55.40;;;;;;5051663;28;20217;-73
2023/05/10 12:50:03;;;;;;;3.17;1.23;;;21.50;56.10;;;;;;5051385;28;20292;-73
2023/05/10 12:52:32;;;;;;;2.10;1.20;;;21.60;54.40;;;;;;5052137;28;20724;-72
2023/05/10 12:54:59;;;;;;;1.23;1.00;;;21.70;54.90;;;;;;5052111;28;20232;-73
2023/05/10 12:57:28;;;;;;;1.40;1.30;;;21.80;55.10;;;;;;5051776;28;20649;-73
2023/05/10 12:59:55;;;;;;;2.87;1.40;;;21.90;55.00;;;;;;5051353;28;20612;-73